Friday, December 14, 2018, 1:15 PM EST
Back to Local

KSNC, Chester, Chester Airport

Location: Chester, CT, United States Lat: 41.384
Local Time: 1:15 PM EST (18:15 GMT) Lon: -72.506
Time Zone: US/Eastern Elev: 416 ft

Show me the last for .
Show Decoded

2018-12-14 12:55 METAR KSNC 141755Z AUTO 15005KT 10SM FEW020 BKN050 08/03 A3039 RMK AO2 =
2018-12-14 12:35 METAR KSNC 141735Z AUTO 12004KT 10SM OVC050 08/02 A3040 RMK AO2 =
2018-12-14 12:15 METAR KSNC 141715Z AUTO VRB03KT 9SM OVC050 07/02 A3042 RMK AO2 =
2018-12-14 11:55 METAR KSNC 141655Z AUTO 13003KT 10SM OVC050 07/02 A3043 RMK AO2 =
2018-12-14 11:35 METAR KSNC 141635Z AUTO VRB04KT 10SM BKN055 07/02 A3044 RMK AO2 =
2018-12-14 11:15 METAR KSNC 141615Z AUTO 00000KT 10SM FEW060 07/02 A3046 RMK AO2 =
2018-12-14 10:55 METAR KSNC 141555Z AUTO 11003KT 10SM BKN060 06/01 A3047 RMK AO2 =
2018-12-14 10:35 METAR KSNC 141535Z AUTO 00000KT 10SM BKN060 06/01 A3050 RMK AO2 =
2018-12-14 10:15 METAR KSNC 141515Z AUTO 13005KT 10SM CLR 06/01 A3050 RMK AO2 =
2018-12-14 09:55 METAR KSNC 141455Z AUTO 14003KT 10SM CLR 06/00 A3051 RMK AO2 =
2018-12-14 09:35 METAR KSNC 141435Z AUTO 00000KT 10SM CLR 04/M00 A3051 RMK AO2 =
2018-12-14 09:15 METAR KSNC 141415Z AUTO 00000KT 9SM CLR 03/M00 A3052 RMK AO2 =
2018-12-14 08:55 METAR KSNC 141355Z AUTO 00000KT 9SM CLR 02/M01 A3051 RMK AO2 =
2018-12-14 08:35 METAR KSNC 141335Z AUTO 00000KT 9SM CLR 01/M02 A3050 RMK AO2 =
2018-12-14 08:15 METAR KSNC 141315Z AUTO 00000KT 9SM CLR 00/M02 A3050 RMK AO2 =
2018-12-14 07:55 METAR KSNC 141255Z AUTO 00000KT 9SM CLR M00/M02 A3049 RMK AO2 =
2018-12-14 07:35 METAR KSNC 141235Z AUTO 00000KT 10SM FEW015 M01/M02 A3050 RMK AO2 =
2018-12-14 07:15 METAR KSNC 141215Z AUTO 00000KT 9SM BKN015 M00/M02 A3048 RMK AO2 =
2018-12-14 06:55 METAR KSNC 141155Z AUTO 00000KT 10SM OVC015 M00/M02 A3049 RMK AO2 =
2018-12-14 06:35 METAR KSNC 141135Z AUTO 00000KT 10SM OVC016 M01/M02 A3049 RMK AO2 =
2018-12-14 06:15 METAR KSNC 141115Z AUTO 00000KT 10SM OVC016 M00/M02 A3049 RMK AO2 =
2018-12-14 05:55 METAR KSNC 141055Z AUTO 00000KT 10SM OVC015 M01/M03 A3049 RMK AO2 =
2018-12-14 05:35 METAR KSNC 141035Z AUTO 00000KT 10SM BKN015 M01/M03 A3048 RMK AO2 =
2018-12-14 05:15 METAR KSNC 141015Z AUTO 00000KT 10SM BKN016 M01/M03 A3048 RMK AO2 =
2018-12-14 04:55 METAR KSNC 140955Z AUTO 00000KT 10SM BKN016 M01/M03 A3049 RMK AO2 =
2018-12-14 04:35 METAR KSNC 140935Z AUTO 00000KT 10SM M01/M03 A3049 RMK AO2 =
2018-12-14 04:15 METAR KSNC 140915Z AUTO 00000KT 10SM M01/M03 A3048 RMK AO2 =
2018-12-14 03:55 METAR KSNC 140855Z AUTO 00000KT 10SM SCT015 SCT039 M01/M03 A3049 RMK AO2 =
2018-12-14 01:55 METAR KSNC 140655Z AUTO 36004KT 10SM OVC039 01/M03 A3051 RMK AO2 =
2018-12-14 01:35 METAR KSNC 140635Z AUTO 34003KT 10SM OVC040 01/M03 A3051 RMK AO2 =
2018-12-14 01:15 METAR KSNC 140615Z AUTO 35003KT 10SM OVC039 01/M03 A3051 RMK AO2 =
2018-12-14 00:55 METAR KSNC 140555Z AUTO 34003KT 10SM OVC038 01/M03 A3051 RMK AO2 =
2018-12-14 00:35 METAR KSNC 140535Z AUTO 00000KT 10SM OVC042 01/M03 A3051 RMK AO2 =
2018-12-14 00:15 METAR KSNC 140515Z AUTO 05003KT 10SM FEW017 OVC044 01/M03 A3051 RMK AO2 =
2018-12-13 23:55 METAR KSNC 140455Z AUTO 00000KT 10SM BKN018 OVC044 01/M03 A3051 RMK AO2 =
2018-12-13 23:35 METAR KSNC 140435Z AUTO 00000KT 10SM OVC020 01/M03 A3052 RMK AO2 =
2018-12-13 23:15 METAR KSNC 140415Z AUTO 36003KT 10SM OVC020 01/M02 A3052 RMK AO2 =
2018-12-13 22:55 METAR KSNC 140355Z AUTO 02004KT 10SM OVC018 01/M02 A3051 RMK AO2 =
2018-12-13 22:35 METAR KSNC 140335Z AUTO 36003KT 10SM 01/M02 A3052 RMK AO2 =
2018-12-13 22:15 METAR KSNC 140315Z AUTO 36003KT 10SM 01/M02 A3052 RMK AO2 =
2018-12-13 21:55 METAR KSNC 140255Z AUTO 02004KT 10SM 01/M02 A3052 RMK AO2 =
2018-12-13 21:35 METAR KSNC 140235Z AUTO 01003KT 10SM 01/M02 A3052 RMK AO2 =
2018-12-13 21:15 METAR KSNC 140215Z AUTO 00000KT 10SM BKN017 01/M02 A3051 RMK AO2 =
2018-12-13 20:55 METAR KSNC 140155Z AUTO 03003KT 10SM BKN017 OVC049 01/M02 A3051 RMK AO2 =
2018-12-13 20:35 METAR KSNC 140135Z AUTO 03004KT 10SM BKN016 OVC048 01/M02 A3051 RMK AO2 =
2018-12-13 20:15 METAR KSNC 140115Z AUTO 06003KT 10SM OVC016 01/M02 A3050 RMK AO2 =
2018-12-13 19:55 METAR KSNC 140055Z AUTO 05003KT 10SM BKN016 OVC047 01/M02 A3050 RMK AO2 =
2018-12-13 19:35 METAR KSNC 140035Z AUTO 07003KT 10SM SCT016 OVC048 01/M02 A3050 RMK AO2 =
2018-12-13 19:15 METAR KSNC 140015Z AUTO 07004KT 10SM BKN015 OVC050 01/M02 A3050 RMK AO2 =
2018-12-13 18:55 METAR KSNC 132355Z AUTO 00000KT 10SM OVC014 01/M02 A3050 RMK AO2 =
2018-12-13 18:35 METAR KSNC 132335Z AUTO VRB04KT 10SM OVC014 01/M02 A3050 RMK AO2 =
2018-12-13 18:15 METAR KSNC 132315Z AUTO 09003KT 10SM OVC015 01/M02 A3049 RMK AO2 =
2018-12-13 17:55 METAR KSNC 132255Z AUTO 08004KT 10SM OVC014 01/M02 A3049 RMK AO2 =
2018-12-13 17:35 METAR KSNC 132235Z AUTO 09004KT 10SM OVC013 01/M02 A3049 RMK AO2 =
2018-12-13 17:15 METAR KSNC 132215Z AUTO 08004KT 10SM OVC012 01/M02 A3049 RMK AO2 =
2018-12-13 16:55 METAR KSNC 132155Z AUTO 06004KT 9SM -SN OVC012 01/M01 A3049 RMK AO2 =
2018-12-13 16:35 METAR KSNC 132135Z AUTO 07004KT 7SM -SN OVC012 01/M02 A3049 RMK AO2 =
2018-12-13 16:15 METAR KSNC 132115Z AUTO VRB05KT 3SM -SN OVC012 01/M02 A3048 RMK AO2 =
2018-12-13 15:55 METAR KSNC 132055Z AUTO 08006KT 5SM -SN OVC012 01/M02 A3048 RMK AO2 =
2018-12-13 15:35 METAR KSNC 132035Z AUTO 07004KT 10SM -UP OVC011 01/M02 A3048 RMK AO2 =
2018-12-13 15:15 METAR KSNC 132015Z AUTO 07005KT 10SM OVC012 01/M02 A3047 RMK AO2 =
2018-12-13 14:55 METAR KSNC 131955Z AUTO 06004KT 10SM OVC012 01/M02 A3046 RMK AO2 =
2018-12-13 14:35 METAR KSNC 131935Z AUTO VRB04KT 10SM BKN012 OVC016 01/M02 A3046 RMK AO2 =
2018-12-13 14:15 METAR KSNC 131915Z AUTO 08005KT 10SM BKN012 OVC016 01/M02 A3045 RMK AO2 =
2018-12-13 13:55 METAR KSNC 131855Z AUTO 06007KT 9SM OVC012 01/M02 A3044 RMK AO2 =
2018-12-13 13:35 METAR KSNC 131835Z AUTO 08006KT 9SM -SN OVC011 01/M02 A3045 RMK AO2 =

Support USWX by starting your Amazon purchase here.